Time;durP1;ratioP1;P1;durP2;ratioP2;P2;SDS_P1;SDS_P2;PMS_P1;PMS_P2;Temp;Humidity;BMP_temperature;BMP_pressure;BME280_temperature;BME280_humidity;BME280_pressure;Samples;Min_cycle;Max_cycle;Signal;HPM_P1;HPM_P2
2021/08/20 00:00:24;;;;;;;;;;;;;;;23.01;69.98;100819.06;4907484;28;102176;-44
2021/08/20 00:02:50;;;;;;;;;;;;;;;22.99;70.00;100811.06;4905355;28;102569;-46
2021/08/20 00:05:16;;;;;;;;;;;;;;;22.99;70.05;100810.25;4911250;28;103962;-46
2021/08/20 00:07:47;;;;;;;;;;;;;;;23.00;70.16;100811.88;4915017;28;102822;-45
2021/08/20 00:10:16;;;;;;;;;;;;;;;23.00;69.98;100820.19;4914048;28;102474;-45
2021/08/20 00:12:44;;;;;;;;;;;;;;;22.99;69.90;100815.81;4909421;28;102130;-45
2021/08/20 00:15:11;;;;;;;;;;;;;;;22.99;70.24;100816.63;4912036;28;103938;-44
2021/08/20 00:17:38;;;;;;;;;;;;;;;22.99;69.92;100833.28;4911583;28;102858;-45
2021/08/20 00:20:05;;;;;;;;;;;;;;;22.99;70.19;100821.38;4908732;28;102751;-45
2021/08/20 00:22:31;;;;;;;;;;;;;;;22.99;70.23;100818.59;4912661;28;102594;-47
2021/08/20 00:25:00;;;;;;;;;;;;;;;22.98;70.12;100823.34;4912822;28;103926;-45
2021/08/20 00:27:26;;;;;;;;;;;;;;;22.98;69.94;100815.00;4913180;28;102685;-46
2021/08/20 00:29:54;;;;;;;;;;;;;;;22.98;70.19;100815.00;4909654;28;102603;-46
2021/08/20 00:32:20;;;;;;;;;;;;;;;22.98;69.90;100811.44;4903945;28;102294;-47
2021/08/20 00:34:46;;;;;;;;;;;;;;;22.98;70.24;100814.22;4908017;28;104197;-45
2021/08/20 00:37:12;;;;;;;;;;;;;;;22.99;70.04;100815.81;4912154;28;102558;-45
2021/08/20 00:39:39;;;;;;;;;;;;;;;22.98;70.01;100814.22;4906551;28;102647;-45
2021/08/20 00:42:07;;;;;;;;;;;;;;;22.98;69.96;100814.22;4919546;28;102610;-45
2021/08/20 00:44:34;;;;;;;;;;;;;;;22.98;70.29;100817.00;4910929;28;103793;-45
2021/08/20 00:47:01;;;;;;;;;;;;;;;22.98;69.97;100814.22;4904902;28;102872;-47
2021/08/20 00:49:27;;;;;;;;;;;;;;;22.97;70.05;100816.19;4913688;28;102464;-45
2021/08/20 00:51:53;;;;;;;;;;;;;;;22.97;70.30;100824.50;4912324;28;102340;-45
2021/08/20 00:54:20;;;;;;;;;;;;;;;22.98;70.11;100817.00;4912844;28;103691;-45
2021/08/20 00:56:47;;;;;;;;;;;;;;;22.98;70.15;100825.31;4910771;28;102660;-46
2021/08/20 00:59:15;;;;;;;;;;;;;;;22.99;69.96;100832.47;4911464;28;102175;-44
2021/08/20 01:01:42;;;;;;;;;;;;;;;22.97;70.04;100824.50;4913473;28;102344;-46
2021/08/20 01:04:08;;;;;;;;;;;;;;;22.98;69.90;100819.75;4911896;28;103961;-45
2021/08/20 01:06:37;;;;;;;;;;;;;;;22.96;70.15;100822.06;4915362;28;102636;-45
2021/08/20 01:09:04;;;;;;;;;;;;;;;22.97;69.92;100809.78;4910005;28;102432;-45
2021/08/20 01:11:30;;;;;;;;;;;;;;;22.97;70.25;100818.97;4914154;28;102635;-44
2021/08/20 01:13:56;;;;;;;;;;;;;;;22.97;70.09;100815.34;4911925;28;104062;-47
2021/08/20 01:16:24;;;;;;;;;;;;;;;22.96;70.00;100811.78;4912258;28;102321;-44
2021/08/20 01:18:51;;;;;;;;;;;;;;;22.97;70.11;100815.34;4911069;28;106276;-44
2021/08/20 01:21:20;;;;;;;;;;;;;;;22.96;70.08;100817.31;4912624;28;102264;-45
2021/08/20 01:23:48;;;;;;;;;;;;;;;22.96;70.02;100811.78;4910691;28;102712;-46
2021/08/20 01:26:16;;;;;;;;;;;;;;;22.95;70.04;100810.16;4910722;28;102521;-45
2021/08/20 01:28:42;;;;;;;;;;;;;;;22.95;70.25;100815.72;4910680;28;102550;-44
2021/08/20 01:31:11;;;;;;;;;;;;;;;22.96;70.15;100816.53;4910508;28;105419;-48
2021/08/20 01:33:38;;;;;;;;;;;;;;;22.96;69.97;100813.75;4909843;28;103108;-44
2021/08/20 01:36:09;;;;;;;;;;;;;;;22.96;69.98;100816.53;4909521;28;102554;-45
2021/08/20 01:38:43;;;;;;;;;;;;;;;22.96;70.09;100808.19;4911366;28;102685;-47
2021/08/20 01:41:12;;;;;;;;;;;;;;;22.95;69.93;100798.25;4898834;28;102146;-47
2021/08/20 01:43:39;;;;;;;;;;;;;;;22.95;70.18;100810.16;4911422;28;103854;-48
2021/08/20 01:46:05;;;;;;;;;;;;;;;22.96;69.99;100811.78;4915508;28;102621;-51
2021/08/20 01:48:32;;;;;;;;;;;;;;;22.95;69.99;100814.91;4917610;28;102314;-46
2021/08/20 01:50:58;;;;;;;;;;;;;;;22.95;69.95;100810.16;4901237;28;104363;-45
2021/08/20 01:53:24;;;;;;;;;;;;;;;22.95;70.11;100801.03;4910747;28;103906;-49
2021/08/20 01:55:51;;;;;;;;;;;;;;;22.94;70.22;100803.00;4912327;28;102090;-48
2021/08/20 01:58:17;;;;;;;;;;;;;;;22.94;69.94;100807.75;4911882;28;102629;-48
2021/08/20 02:00:44;;;;;;;;;;;;;;;22.94;70.25;100807.75;4911554;28;102431;-46
2021/08/20 02:03:12;;;;;;;;;;;;;;;22.95;70.27;100798.25;4906031;28;104116;-44
2021/08/20 02:05:41;;;;;;;;;;;;;;;22.95;69.98;100801.03;4912573;28;102569;-44
2021/08/20 02:08:09;;;;;;;;;;;;;;;22.94;70.20;100796.66;4916562;28;102392;-45
2021/08/20 02:10:35;;;;;;;;;;;;;;;22.93;69.94;100795.81;4914408;28;102356;-45
2021/08/20 02:13:01;;;;;;;;;;;;;;;22.93;70.21;100798.59;4913015;28;103649;-45
2021/08/20 02:15:28;;;;;;;;;;;;;;;22.93;70.21;100800.56;4910881;28;102326;-44
2021/08/20 02:17:56;;;;;;;;;;;;;;;22.93;69.87;100808.88;4910801;28;102300;-47
2021/08/20 02:20:23;;;;;;;;;;;;;;;22.94;69.99;100807.75;4913173;28;104025;-47
2021/08/20 02:22:57;;;;;;;;;;;;;;;22.94;69.95;100802.19;4910641;28;103950;-45
2021/08/20 02:25:23;;;;;;;;;;;;;;;22.94;70.18;100802.19;4910963;28;102330;-46
2021/08/20 02:27:49;;;;;;;;;;;;;;;22.94;70.02;100813.31;4910962;28;102201;-46
2021/08/20 02:30:17;;;;;;;;;;;;;;;22.93;70.07;100817.22;4913247;28;103229;-46
2021/08/20 02:32:44;;;;;;;;;;;;;;;22.93;70.10;100809.69;4909094;28;104010;-45
2021/08/20 02:35:12;;;;;;;;;;;;;;;22.92;70.22;100810.88;4912818;28;102042;-45
2021/08/20 02:37:38;;;;;;;;;;;;;;;22.93;70.13;100817.22;4913355;28;102033;-45
2021/08/20 02:40:06;;;;;;;;;;;;;;;22.93;70.01;100811.66;4912308;28;102337;-46
2021/08/20 02:42:32;;;;;;;;;;;;;;;22.92;70.21;100816.41;4909674;28;103877;-46
2021/08/20 02:44:58;;;;;;;;;;;;;;;22.93;70.44;100822.78;4909962;28;102589;-46
2021/08/20 02:47:25;;;;;;;;;;;;;;;22.93;70.30;100811.66;4910796;28;102415;-46
2021/08/20 02:49:51;;;;;;;;;;;;;;;22.91;70.14;100814.78;4910983;28;102205;-45
2021/08/20 02:52:19;;;;;;;;;;;;;;;22.92;70.15;100815.63;4909634;28;104173;-46
2021/08/20 02:54:45;;;;;;;;;;;;;;;22.92;70.01;100810.88;4911581;28;102679;-47
2021/08/20 02:57:11;;;;;;;;;;;;;;;22.92;69.98;100824.75;4911408;28;102551;-47
2021/08/20 02:59:38;;;;;;;;;;;;;;;22.92;70.17;100826.72;4910881;28;102240;-46
2021/08/20 03:02:06;;;;;;;;;;;;;;;22.91;70.16;100833.41;4915126;28;104103;-48
2021/08/20 03:04:34;;;;;;;;;;;;;;;22.92;70.01;100837.81;4908539;28;102688;-46
2021/08/20 03:07:00;;;;;;;;;;;;;;;22.91;70.00;100836.19;4911823;28;102498;-46
2021/08/20 03:09:28;;;;;;;;;;;;;;;22.91;70.19;100836.19;4904806;28;102588;-46
2021/08/20 03:11:54;;;;;;;;;;;;;;;22.91;70.09;100836.19;4910081;28;102691;-47
2021/08/20 03:14:22;;;;;;;;;;;;;;;22.91;70.10;100838.94;4910293;28;102720;-49
2021/08/20 03:16:48;;;;;;;;;;;;;;;22.90;70.16;100838.16;4909819;28;102033;-45
2021/08/20 03:19:15;;;;;;;;;;;;;;;22.91;70.33;100836.19;4912214;28;102618;-45
2021/08/20 03:21:41;;;;;;;;;;;;;;;22.92;70.13;100840.59;4913607;28;103910;-45
2021/08/20 03:24:08;;;;;;;;;;;;;;;22.91;69.94;100833.41;4920649;28;102470;-47
2021/08/20 03:26:35;;;;;;;;;;;;;;;22.89;70.00;100819.84;4911534;28;102713;-47
2021/08/20 03:29:02;;;;;;;;;;;;;;;22.91;70.04;100830.63;4911769;28;102426;-46
2021/08/20 03:31:28;;;;;;;;;;;;;;;22.89;70.20;100827.38;4908365;28;103908;-48
2021/08/20 03:33:54;;;;;;;;;;;;;;;22.89;69.95;100824.59;4909813;28;102186;-48
2021/08/20 03:36:22;;;;;;;;;;;;;;;22.89;70.12;100835.72;4909191;28;102609;-46
2021/08/20 03:38:50;;;;;;;;;;;;;;;22.89;70.19;100832.94;4912852;28;102573;-45
2021/08/20 03:41:16;;;;;;;;;;;;;;;22.89;70.12;100838.47;4914048;28;103899;-46
2021/08/20 03:43:46;;;;;;;;;;;;;;;22.88;70.36;100837.69;4913309;28;101897;-46
2021/08/20 03:46:12;;;;;;;;;;;;;;;22.89;70.59;100835.72;4915002;28;102850;-48
2021/08/20 03:48:42;;;;;;;;;;;;;;;22.88;70.18;100836.88;4918287;28;102485;-46
2021/08/20 03:51:09;;;;;;;;;;;;;;;22.89;70.11;100846.81;4913483;28;104032;-46
2021/08/20 03:53:35;;;;;;;;;;;;;;;22.88;70.39;100848.78;4913148;28;102554;-45
2021/08/20 03:56:02;;;;;;;;;;;;;;;22.88;70.00;100847.97;4915076;28;102335;-47
2021/08/20 03:58:28;;;;;;;;;;;;;;;22.89;70.56;100855.13;4915012;28;102627;-48
2021/08/20 04:00:56;;;;;;;;;;;;;;;22.88;70.21;100851.56;4914095;28;103714;-46
2021/08/20 04:03:23;;;;;;;;;;;;;;;22.87;70.10;100861.03;4912850;28;102742;-45
2021/08/20 04:05:50;;;;;;;;;;;;;;;22.89;70.39;100857.91;4910131;28;102345;-46
2021/08/20 04:08:17;;;;;;;;;;;;;;;22.88;69.99;100862.66;4916102;28;102801;-46
2021/08/20 04:10:44;;;;;;;;;;;;;;;22.88;70.23;100859.06;4912632;28;104077;-45
2021/08/20 04:13:11;;;;;;;;;;;;;;;22.88;70.05;100853.53;4912056;28;102303;-45
2021/08/20 04:15:39;;;;;;;;;;;;;;;22.88;70.30;100859.06;4911326;28;102816;-45
2021/08/20 04:18:07;;;;;;;;;;;;;;;22.88;70.25;100859.06;4914259;28;102592;-46
2021/08/20 04:20:34;;;;;;;;;;;;;;;22.87;70.23;100863.81;4912430;28;104240;-45
2021/08/20 04:23:01;;;;;;;;;;;;;;;22.88;70.17;100857.09;4913133;28;102355;-45
2021/08/20 04:25:28;;;;;;;;;;;;;;;22.88;70.08;100864.63;4911126;28;102482;-46
2021/08/20 04:27:54;;;;;;;;;;;;;;;22.88;70.20;100859.06;4915131;28;102928;-45
2021/08/20 04:30:21;;;;;;;;;;;;;;;22.87;70.38;100857.47;4912483;28;103957;-46
2021/08/20 04:32:47;;;;;;;;;;;;;;;22.88;70.11;100859.06;4912995;28;102704;-48
2021/08/20 04:35:15;;;;;;;;;;;;;;;22.87;70.22;100857.47;4912148;28;102371;-48
2021/08/20 04:37:41;;;;;;;;;;;;;;;22.87;70.10;100851.91;4916999;28;102573;-46
2021/08/20 04:40:08;;;;;;;;;;;;;;;22.87;70.17;100857.47;4913632;28;102695;-45
2021/08/20 04:42:35;;;;;;;;;;;;;;;22.87;70.14;100854.69;4913115;28;102117;-46
2021/08/20 04:45:01;;;;;;;;;;;;;;;22.86;70.24;100853.84;4892218;28;102393;-48
2021/08/20 04:47:28;;;;;;;;;;;;;;;22.87;70.00;100852.72;4915865;28;102431;-46
2021/08/20 04:49:54;;;;;;;;;;;;;;;22.87;70.10;100851.91;4909617;28;103826;-45
2021/08/20 04:52:22;;;;;;;;;;;;;;;22.87;70.15;100868.56;4911645;28;102778;-45
2021/08/20 04:54:49;;;;;;;;;;;;;;;22.87;70.15;100860.25;4910483;28;102539;-45
2021/08/20 04:57:15;;;;;;;;;;;;;;;22.86;70.42;100861.38;4921949;28;102195;-48
2021/08/20 04:59:43;;;;;;;;;;;;;;;22.86;70.30;100850.28;4912648;28;104092;-45
2021/08/20 05:02:09;;;;;;;;;;;;;;;22.87;70.04;100840.81;4906825;28;102192;-46
2021/08/20 05:04:37;;;;;;;;;;;;;;;22.87;70.20;100841.63;4909072;28;102331;-48
2021/08/20 05:07:03;;;;;;;;;;;;;;;22.87;70.06;100835.25;4911961;28;102811;-45
2021/08/20 05:09:31;;;;;;;;;;;;;;;22.86;70.15;100833.63;4911237;28;104193;-46
2021/08/20 05:11:57;;;;;;;;;;;;;;;22.87;70.03;100835.25;4906252;28;102851;-45
2021/08/20 05:14:23;;;;;;;;;;;;;;;22.87;70.23;100846.38;4912356;28;102664;-46
2021/08/20 05:17:00;;;;;;;;;;;;;;;22.86;70.02;100851.09;4915865;28;102274;-47
2021/08/20 05:19:27;;;;;;;;;;;;;;;22.88;70.02;100850.75;4902303;28;104198;-47
2021/08/20 05:21:54;;;;;;;;;;;;;;;22.87;70.08;100857.47;4908282;28;102415;-45
2021/08/20 05:24:21;;;;;;;;;;;;;;;22.88;70.14;100856.28;4912741;28;102547;-48
2021/08/20 05:26:49;;;;;;;;;;;;;;;22.88;70.22;100847.97;4916990;28;102557;-45
2021/08/20 05:29:16;;;;;;;;;;;;;;;22.89;70.13;100844.03;4909640;28;103336;-45
2021/08/20 05:31:42;;;;;;;;;;;;;;;22.89;70.42;100855.13;4911720;28;102682;-45
2021/08/20 05:34:08;;;;;;;;;;;;;;;22.89;70.09;100852.34;4907514;28;102248;-45
2021/08/20 05:36:35;;;;;;;;;;;;;;;22.91;70.47;100858.38;4903899;28;102623;-45
2021/08/20 05:39:01;;;;;;;;;;;;;;;22.90;70.27;100865.91;4907275;28;104030;-47
2021/08/20 05:41:28;;;;;;;;;;;;;;;22.90;70.15;100860.34;4904525;28;102475;-46
2021/08/20 05:43:56;;;;;;;;;;;;;;;22.91;70.34;100861.16;4901206;28;102696;-45
2021/08/20 05:46:23;;;;;;;;;;;;;;;22.92;70.28;100857.25;4911858;28;102790;-48
2021/08/20 05:48:49;;;;;;;;;;;;;;;22.92;70.26;100860.00;4902583;28;103993;-46
2021/08/20 05:51:15;;;;;;;;;;;;;;;22.92;70.11;100865.56;4906160;28;102157;-46
2021/08/20 05:53:42;;;;;;;;;;;;;;;22.92;70.13;100865.56;4910071;28;105693;-47
2021/08/20 05:56:08;;;;;;;;;;;;;;;22.94;70.33;100863.25;4911709;28;102912;-46
2021/08/20 05:58:35;;;;;;;;;;;;;;;22.93;70.43;100856.88;4906323;28;103984;-46
2021/08/20 06:01:02;;;;;;;;;;;;;;;22.94;70.19;100857.72;4902519;28;102731;-46
2021/08/20 06:03:30;;;;;;;;;;;;;;;22.94;70.10;100847.41;4905376;28;102575;-47
2021/08/20 06:05:57;;;;;;;;;;;;;;;22.96;69.98;100855.38;4904741;28;103080;-45
2021/08/20 06:08:24;;;;;;;;;;;;;;;22.97;70.00;100854.19;4888724;28;103874;-46
2021/08/20 06:10:52;;;;;;;;;;;;;;;22.97;70.20;100851.44;4908293;28;102302;-45
2021/08/20 06:13:19;;;;;;;;;;;;;;;22.97;70.08;100845.88;4909859;28;102589;-46
2021/08/20 06:15:53;;;;;;;;;;;;;;;22.98;70.10;100855.84;4907275;28;102798;-46
2021/08/20 06:18:21;;;;;;;;;;;;;;;22.98;70.36;100847.50;4907137;28;104128;-45
2021/08/20 06:20:50;;;;;;;;;;;;;;;22.99;70.29;100849.13;4900075;28;103096;-46
2021/08/20 06:23:17;;;;;;;;;;;;;;;23.00;70.23;100850.72;4910680;28;102386;-46
2021/08/20 06:25:43;;;;;;;;;;;;;;;22.99;70.24;100841.59;4902913;28;102450;-46
2021/08/20 06:28:09;;;;;;;;;;;;;;;23.00;69.86;100840.44;4904643;28;103895;-48
2021/08/20 06:30:35;;;;;;;;;;;;;;;23.00;69.94;100836.84;4902842;28;102431;-45
2021/08/20 06:33:02;;;;;;;;;;;;;;;23.01;70.01;100846.81;4907423;28;103122;-45
2021/08/20 06:35:30;;;;;;;;;;;;;;;23.02;70.06;100842.88;4908223;28;102365;-48
2021/08/20 06:37:56;;;;;;;;;;;;;;;23.02;70.00;100842.88;4906914;28;104794;-47
2021/08/20 06:40:23;;;;;;;;;;;;;;;23.02;70.13;100840.91;4911503;28;102509;-48
2021/08/20 06:42:51;;;;;;;;;;;;;;;23.03;70.11;100836.16;4908066;28;102122;-47
2021/08/20 06:45:17;;;;;;;;;;;;;;;23.04;69.96;100840.53;4911502;28;102487;-46
2021/08/20 06:47:44;;;;;;;;;;;;;;;23.04;69.78;100837.75;4908096;28;103894;-48
2021/08/20 06:50:10;;;;;;;;;;;;;;;23.04;69.75;100834.97;4908564;28;102373;-45
2021/08/20 06:52:38;;;;;;;;;;;;;;;23.06;69.88;100840.19;4914962;28;102450;-45
2021/08/20 06:55:04;;;;;;;;;;;;;;;23.05;70.01;100842.16;4912831;28;102606;-49
2021/08/20 06:57:31;;;;;;;;;;;;;;;23.05;69.97;100842.16;4910710;28;104127;-45
2021/08/20 06:59:57;;;;;;;;;;;;;;;23.06;69.75;100846.56;4910078;28;102631;-46
2021/08/20 07:02:23;;;;;;;;;;;;;;;23.05;69.74;100831.06;4912026;28;102805;-45
2021/08/20 07:04:50;;;;;;;;;;;;;;;23.06;69.88;100832.66;4893692;28;103955;-46
2021/08/20 07:07:16;;;;;;;;;;;;;;;23.06;69.69;100837.41;4909922;28;103891;-45
2021/08/20 07:09:44;;;;;;;;;;;;;;;23.08;69.84;100846.19;4911559;28;102746;-49
2021/08/20 07:12:10;;;;;;;;;;;;;;;23.08;69.65;100835.91;4916578;28;102311;-49
2021/08/20 07:14:36;;;;;;;;;;;;;;;23.08;69.91;100841.47;4912201;28;102571;-47
2021/08/20 07:17:03;;;;;;;;;;;;;;;23.09;69.92;100837.53;4910218;28;103912;-46
2021/08/20 07:19:30;;;;;;;;;;;;;;;23.09;69.74;100843.06;4909732;28;102695;-47
2021/08/20 07:21:58;;;;;;;;;;;;;;;23.10;69.88;100832.78;4911800;28;102344;-46
2021/08/20 07:24:25;;;;;;;;;;;;;;;23.10;69.86;100833.56;4908734;28;102210;-45
2021/08/20 07:26:53;;;;;;;;;;;;;;;23.11;69.98;100840.75;4906104;28;103729;-49
2021/08/20 07:29:19;;;;;;;;;;;;;;;23.12;69.68;100833.25;4911441;28;106758;-48
2021/08/20 07:31:47;;;;;;;;;;;;;;;23.12;69.70;100836.81;4909424;28;102560;-46
2021/08/20 07:34:13;;;;;;;;;;;;;;;23.13;69.55;100832.88;4910906;28;102231;-46
2021/08/20 07:36:39;;;;;;;;;;;;;;;23.12;69.64;100836.81;4907556;28;103905;-47
2021/08/20 07:39:06;;;;;;;;;;;;;;;23.13;69.76;100841.19;4909823;28;102233;-45
2021/08/20 07:41:32;;;;;;;;;;;;;;;23.14;69.81;100834.47;4910866;28;102438;-44
2021/08/20 07:44:00;;;;;;;;;;;;;;;23.16;69.80;100836.91;4905691;28;102592;-46
2021/08/20 07:46:26;;;;;;;;;;;;;;;23.15;69.65;100838.91;4909198;28;103832;-45
2021/08/20 07:48:52;;;;;;;;;;;;;;;23.16;69.64;100834.94;4910207;28;102054;-48
2021/08/20 07:51:19;;;;;;;;;;;;;;;23.17;69.60;100836.56;4910794;28;102587;-45
2021/08/20 07:53:56;;;;;;;;;;;;;;;23.16;69.63;100843.28;4911813;28;102413;-47
2021/08/20 07:56:22;;;;;;;;;;;;;;;23.17;69.44;100842.09;4909524;28;103849;-46
2021/08/20 07:58:50;;;;;;;;;;;;;;;23.17;69.45;100839.31;4906888;28;102301;-48
2021/08/20 08:01:18;;;;;;;;;;;;;;;23.18;69.41;100834.59;4913313;28;102484;-46
2021/08/20 08:03:46;;;;;;;;;;;;;;;23.18;69.50;100834.59;4902618;28;102669;-45
2021/08/20 08:06:13;;;;;;;;;;;;;;;23.19;69.57;100841.78;4906524;28;103876;-47
2021/08/20 08:08:39;;;;;;;;;;;;;;;23.18;69.60;100835.38;4912498;28;103194;-46
2021/08/20 08:11:12;;;;;;;;;;;;;;;23.19;69.34;100828.69;4908092;28;102546;-48
2021/08/20 08:13:42;;;;;;;;;;;;;;;23.19;69.43;100839.00;4910778;28;102329;-46
2021/08/20 08:16:11;;;;;;;;;;;;;;;23.19;69.54;100837.03;4905696;28;104092;-47
2021/08/20 08:18:38;;;;;;;;;;;;;;;23.20;69.45;100841.41;4908862;28;102401;-46
2021/08/20 08:21:05;;;;;;;;;;;;;;;23.19;69.36;100837.03;4908861;28;102740;-47
2021/08/20 08:23:32;;;;;;;;;;;;;;;23.20;69.54;100830.31;4909534;28;102615;-45
2021/08/20 08:25:58;;;;;;;;;;;;;;;23.21;69.38;100831.91;4908063;28;104165;-48
2021/08/20 08:28:24;;;;;;;;;;;;;;;23.20;69.19;100821.97;4904814;28;102778;-46
2021/08/20 08:30:51;;;;;;;;;;;;;;;23.21;69.45;100823.56;4906674;28;103918;-46
2021/08/20 08:33:18;;;;;;;;;;;;;;;23.21;69.43;100825.53;4904216;28;103520;-45
2021/08/20 08:35:46;;;;;;;;;;;;;;;23.21;69.32;100823.56;4904099;28;103972;-45
2021/08/20 08:38:13;;;;;;;;;;;;;;;23.22;69.44;100829.94;4902869;28;103831;-46
2021/08/20 08:40:42;;;;;;;;;;;;;;;23.21;69.32;100823.56;4904110;28;102188;-45
2021/08/20 08:43:09;;;;;;;;;;;;;;;23.22;69.12;100824.38;4908150;28;102722;-44
2021/08/20 08:45:35;;;;;;;;;;;;;;;23.21;69.35;100818.03;4913145;28;103962;-45
2021/08/20 08:48:03;;;;;;;;;;;;;;;23.21;69.15;100826.34;4918203;28;102944;-47
2021/08/20 08:50:30;;;;;;;;;;;;;;;23.23;69.31;100831.56;4906380;28;102562;-45
2021/08/20 08:52:58;;;;;;;;;;;;;;;23.21;69.21;100826.34;4909409;28;102672;-47
2021/08/20 08:55:24;;;;;;;;;;;;;;;23.21;69.43;100828.31;4908510;28;103813;-44
2021/08/20 08:57:51;;;;;;;;;;;;;;;23.23;69.06;100829.59;4900158;28;102069;-47
2021/08/20 09:00:27;;;;;;;;;;;;;;;23.22;69.15;100824.38;4906010;28;103810;-46
2021/08/20 09:02:53;;;;;;;;;;;;;;;23.21;68.99;100818.03;4909151;28;107055;-45
2021/08/20 09:05:20;;;;;;;;;;;;;;;23.23;68.98;100832.38;4912099;28;103688;-45
2021/08/20 09:07:49;;;;;;;;;;;;;;;23.23;68.96;100831.56;4912077;28;102045;-45
2021/08/20 09:10:18;;;;;;;;;;;;;;;23.21;69.07;100834.69;4913226;28;102619;-46
2021/08/20 09:13:02;;;;;;;;;;;;;;;23.21;69.13;100833.88;4910477;28;102175;-46
2021/08/20 09:15:29;;;;;;;;;;;;;;;23.22;68.96;100841.03;4911696;28;104143;-45
2021/08/20 09:17:57;;;;;;;;;;;;;;;23.22;69.16;100841.03;4912800;28;102603;-46
2021/08/20 09:20:24;;;;;;;;;;;;;;;23.21;68.89;100839.44;4910775;28;102869;-48
2021/08/20 09:22:52;;;;;;;;;;;;;;;23.21;69.10;100839.44;4894680;28;102992;-45
2021/08/20 09:25:30;;;;;;;;;;;;;;;23.21;69.10;100839.44;4908194;28;105011;-45
2021/08/20 09:28:07;;;;;;;;;;;;;;;23.20;69.06;100844.19;4912490;28;102593;-45
2021/08/20 09:30:33;;;;;;;;;;;;;;;23.21;69.18;100850.53;4905039;28;102825;-46
2021/08/20 09:33:00;;;;;;;;;;;;;;;23.19;69.15;100845.34;4912279;28;102597;-46
2021/08/20 09:35:34;;;;;;;;;;;;;;;23.19;68.95;100845.34;4904657;28;103988;-48
2021/08/20 09:38:05;;;;;;;;;;;;;;;23.20;68.88;100855.28;4907075;28;102149;-48
2021/08/20 09:40:34;;;;;;;;;;;;;;;23.18;69.24;100846.50;4906840;28;102325;-46
2021/08/20 09:43:12;;;;;;;;;;;;;;;23.20;69.20;100854.47;4910945;28;107041;-45
2021/08/20 09:45:39;;;;;;;;;;;;;;;23.19;69.00;100852.88;4914375;28;103860;-46
2021/08/20 09:48:06;;;;;;;;;;;;;;;23.19;69.35;100850.91;4913024;28;102723;-46
2021/08/20 09:50:39;;;;;;;;;;;;;;;23.19;69.29;100848.13;4910699;28;102396;-46
2021/08/20 09:53:13;;;;;;;;;;;;;;;23.19;68.89;100858.44;4911699;28;102598;-45
2021/08/20 09:55:41;;;;;;;;;;;;;;;23.18;68.98;100852.03;4910919;28;103653;-46
2021/08/20 09:58:10;;;;;;;;;;;;;;;23.18;69.10;100860.38;4911965;28;102603;-45
2021/08/20 10:00:36;;;;;;;;;;;;;;;23.18;69.13;100868.69;4904480;28;102717;-45
2021/08/20 10:03:04;;;;;;;;;;;;;;;23.18;69.29;100856.78;4905648;28;102395;-46
2021/08/20 10:05:32;;;;;;;;;;;;;;;23.18;69.04;100848.47;4908273;28;103724;-47
2021/08/20 10:08:00;;;;;;;;;;;;;;;23.17;69.16;100864.31;4905726;28;102212;-46
2021/08/20 10:10:27;;;;;;;;;;;;;;;23.17;69.25;100856.00;4907475;28;103586;-46
2021/08/20 10:12:56;;;;;;;;;;;;;;;23.16;69.04;100854.38;4909935;28;102801;-47
2021/08/20 10:15:22;;;;;;;;;;;;;;;23.16;69.00;100857.16;4910423;28;102761;-48
2021/08/20 10:17:51;;;;;;;;;;;;;;;23.15;69.21;100852.78;4911428;28;102221;-45
2021/08/20 10:20:18;;;;;;;;;;;;;;;23.15;69.14;100846.38;4905725;28;102540;-45
2021/08/20 10:22:44;;;;;;;;;;;;;;;23.15;68.96;100855.56;4910046;28;102877;-46
2021/08/20 10:25:11;;;;;;;;;;;;;;;23.15;68.98;100858.31;4904160;28;104151;-47
2021/08/20 10:27:38;;;;;;;;;;;;;;;23.15;69.18;100851.94;4907141;28;102516;-46
2021/08/20 10:30:08;;;;;;;;;;;;;;;23.14;68.90;100840.03;4904330;28;102806;-48
2021/08/20 10:32:34;;;;;;;;;;;;;;;23.14;69.19;100842.81;4893806;28;102559;-48
2021/08/20 10:35:00;;;;;;;;;;;;;;;23.15;68.83;100835.28;4904540;28;103777;-45
2021/08/20 10:37:28;;;;;;;;;;;;;;;23.15;68.98;100841.66;4909437;28;102634;-46
2021/08/20 10:39:55;;;;;;;;;;;;;;;23.15;68.95;100841.66;4909346;28;103506;-48
2021/08/20 10:42:22;;;;;;;;;;;;;;;23.16;69.00;100839.69;4906953;28;102609;-46
2021/08/20 10:44:51;;;;;;;;;;;;;;;23.16;68.85;100846.06;4905393;28;103893;-47
2021/08/20 10:47:23;;;;;;;;;;;;;;;23.15;68.74;100841.66;4906156;28;102490;-45
2021/08/20 10:49:50;;;;;;;;;;;;;;;23.16;68.73;100831.38;4908384;28;102674;-47
2021/08/20 10:52:28;;;;;;;;;;;;;;;23.14;68.57;100834.47;4913675;28;102237;-45
2021/08/20 10:55:18;;;;;;;;;;;;;;;23.14;68.57;100840.03;4903929;28;103706;-46
2021/08/20 10:58:11;;;;;;;;;;;;;;;23.14;68.65;100834.47;4904815;28;102690;-46
2021/08/20 11:00:58;;;;;;;;;;;;;;;23.15;68.33;100836.13;4906228;28;102838;-44
2021/08/20 11:03:42;;;;;;;;;;;;;;;23.14;68.37;100828.94;4904528;28;102416;-47
2021/08/20 11:06:08;;;;;;;;;;;;;;;23.15;68.70;100833.34;4908592;28;103874;-48
2021/08/20 11:08:38;;;;;;;;;;;;;;;23.14;68.96;100834.47;4907636;28;102326;-46
2021/08/20 11:11:21;;;;;;;;;;;;;;;23.15;68.85;100830.56;4906067;28;102463;-45
2021/08/20 11:14:02;;;;;;;;;;;;;;;23.16;68.71;100842.47;4905224;28;102683;-46
2021/08/20 11:16:38;;;;;;;;;;;;;;;23.15;68.90;100836.13;4909036;28;104034;-45
2021/08/20 11:19:30;;;;;;;;;;;;;;;23.15;68.62;100836.13;4903970;28;103241;-49
2021/08/20 11:22:11;;;;;;;;;;;;;;;23.15;68.36;100832.50;4905458;28;102608;-48
2021/08/20 11:24:37;;;;;;;;;;;;;;;23.14;68.60;100823.38;4906298;28;102837;-46
2021/08/20 11:27:10;;;;;;;;;;;;;;;23.15;68.62;100830.56;4903972;28;103870;-46
2021/08/20 11:29:41;;;;;;;;;;;;;;;23.15;68.51;100824.19;4909284;28;102277;-47
2021/08/20 11:32:08;;;;;;;;;;;;;;;23.13;68.53;100827.31;4904449;28;102169;-45
2021/08/20 11:34:49;;;;;;;;;;;;;;;23.14;68.63;100822.56;4912140;28;102349;-46
2021/08/20 11:37:15;;;;;;;;;;;;;;;23.15;68.62;100815.84;4902603;28;103848;-48
2021/08/20 11:39:47;;;;;;;;;;;;;;;23.13;68.61;100810.66;4908402;28;102351;-46
2021/08/20 11:42:13;;;;;;;;;;;;;;;23.15;68.95;100826.97;4908986;28;102467;-48
2021/08/20 11:44:42;;;;;;;;;;;;;;;23.14;68.78;100828.94;4935609;23;102392;-88
2021/08/20 11:47:14;;;;;;;;;;;;;;;23.14;68.97;100817.81;4954481;28;102822;-87
2021/08/20 11:49:42;;;;;;;;;;;;;;;23.15;68.84;100813.91;4941653;28;102103;-88
2021/08/20 11:52:08;;;;;;;;;;;;;;;23.15;69.12;100816.69;4939803;28;102019;-87
2021/08/20 11:54:35;;;;;;;;;;;;;;;23.15;69.08;100813.91;4943420;28;102961;-87
2021/08/20 11:57:01;;;;;;;;;;;;;;;23.16;69.24;100820.25;4955442;28;102218;-87
2021/08/20 11:59:28;;;;;;;;;;;;;;;23.16;69.16;100820.25;4939416;28;102172;-87
2021/08/20 12:01:55;;;;;;;;;;;;;;;23.16;69.12;100812.75;4941198;28;102149;-87
2021/08/20 12:04:22;;;;;;;;;;;;;;;23.15;69.36;100825.00;4946069;28;102170;-93
2021/08/20 12:06:50;;;;;;;;;;;;;;;23.15;69.13;100816.69;4943200;28;102391;-93
2021/08/20 12:09:20;;;;;;;;;;;;;;;23.15;69.42;100819.47;4945553;28;101974;-92
2021/08/20 12:11:49;;;;;;;;;;;;;;;23.15;69.25;100813.06;4945806;28;102081;-92
2021/08/20 12:14:17;;;;;;;;;;;;;;;23.14;69.16;100828.94;4947965;28;102096;-93
2021/08/20 12:16:44;;;;;;;;;;;;;;;23.14;69.50;100815.03;4946881;28;102713;-93
2021/08/20 12:19:12;;;;;;;;;;;;;;;23.14;69.30;100817.81;4946608;28;102124;-87
2021/08/20 12:21:38;;;;;;;;;;;;;;;23.14;69.38;100811.47;4943420;28;102048;-86
2021/08/20 12:24:06;;;;;;;;;;;;;;;23.14;69.26;100800.38;4943324;28;102071;-87
2021/08/20 12:26:33;;;;;;;;;;;;;;;23.13;69.55;100810.66;4941513;28;102667;-87
2021/08/20 12:29:11;;;;;;;;;;;;;;;23.13;69.52;100810.66;4942281;28;102143;-87
2021/08/20 12:31:37;;;;;;;;;;;;;;;23.14;69.60;100817.03;4932788;28;102067;-86